Terminal Aerodrome Forecast
Issued by NWS

Home | Current Version | Previous Version | Text Only | Print | Product List | Glossary On
Versions: 1 2 3 4 5 6 7 8 9 10 11 12
000
FTUS44 KTSA 262323
TAFBVO
TAF
KBVO 262323Z 2700/2724 00000KT P6SM BKN050
     FM270200 00000KT P6SM FEW050 SCT250
     FM271000 13002KT 2SM BR OVC008
     FM271500 17008KT 4SM BR OVC015
     FM272200 VRB05KT 5SM BR OVC025=

USA.gov is the U.S. government's official web portal to all federal, state and local government web resources and services.